Time;durP1;ratioP1;P1;durP2;ratioP2;P2;SDS_P1;SDS_P2;PMS_P1;PMS_P2;Temp;Humidity;BMP_temperature;BMP_pressure;BME280_temperature;BME280_humidity;BME280_pressure;Samples;Min_cycle;Max_cycle;Signal;HPM_P1;HPM_P2
2022/05/24 00:09:50;;;;;;;0.20;0.10;;;19.80;99.90;;;;;;26434768;22;20220;-73
2022/05/24 00:19:54;;;;;;;0.20;0.10;;;19.70;99.90;;;;;;26431334;22;20188;-73
2022/05/24 00:29:59;;;;;;;0.20;0.10;;;19.80;99.90;;;;;;26430503;22;20194;-72
2022/05/24 00:40:04;;;;;;;0.20;0.10;;;19.60;99.90;;;;;;26432248;22;20161;-74
2022/05/24 00:50:13;;;;;;;0.20;0.10;;;19.60;99.90;;;;;;26430781;22;20181;-73
2022/05/24 01:00:19;;;;;;;0.20;0.00;;;19.60;99.90;;;;;;26427940;22;20186;-73
2022/05/24 01:10:27;;;;;;;0.20;0.00;;;19.60;99.90;;;;;;26431504;22;20268;-73
2022/05/24 01:20:31;;;;;;;0.20;0.10;;;19.50;99.90;;;;;;26428827;22;20165;-73
2022/05/24 01:30:36;;;;;;;0.20;0.00;;;19.60;99.90;;;;;;26401269;22;20197;-73
2022/05/24 01:40:41;;;;;;;0.20;0.00;;;19.60;99.90;;;;;;26429616;22;20170;-73
2022/05/24 01:50:47;;;;;;;0.20;0.00;;;19.60;99.90;;;;;;26430332;22;20181;-74
2022/05/24 02:01:09;;;;;;;0.20;0.10;;;19.80;99.90;;;;;;26404343;22;20190;-74
2022/05/24 02:11:18;;;;;;;0.20;0.10;;;19.80;99.90;;;;;;26430756;22;20280;-73
2022/05/24 02:21:22;;;;;;;0.20;0.00;;;19.80;99.90;;;;;;26430788;22;20166;-73
2022/05/24 02:31:27;;;;;;;0.20;0.00;;;20.10;99.90;;;;;;26433881;22;20194;-74
2022/05/24 02:41:32;;;;;;;0.20;0.00;;;20.00;99.90;;;;;;26438305;22;20177;-74
2022/05/24 02:51:38;;;;;;;0.20;0.00;;;20.20;99.90;;;;;;26436848;22;20198;-74
2022/05/24 03:01:42;;;;;;;0.20;0.00;;;20.40;99.90;;;;;;26438233;22;20166;-73
2022/05/24 03:22:09;;;;;;;0.20;0.10;;;20.50;99.90;;;;;;26434580;22;20227;-74
2022/05/24 03:32:16;;;;;;;0.20;0.10;;;20.70;99.90;;;;;;26433860;22;20198;-73
2022/05/24 03:42:20;;;;;;;0.20;0.00;;;20.80;99.90;;;;;;26435451;22;20174;-73
2022/05/24 03:52:26;;;;;;;0.20;0.00;;;21.00;99.90;;;;;;26434561;22;20208;-74
2022/05/24 04:02:29;;;;;;;0.20;0.03;;;21.20;99.90;;;;;;26435249;22;20170;-74
2022/05/24 04:12:35;;;;;;;0.20;0.00;;;21.20;99.90;;;;;;26434403;22;20186;-74
2022/05/24 04:22:39;;;;;;;0.20;0.00;;;21.00;99.90;;;;;;26378945;22;20162;-73
2022/05/24 04:32:44;;;;;;;0.20;0.00;;;21.20;99.90;;;;;;26431404;22;20242;-74
2022/05/24 04:42:48;;;;;;;0.20;0.00;;;21.20;99.90;;;;;;26432460;22;20162;-72
2022/05/24 04:52:53;;;;;;;0.20;0.10;;;21.20;99.90;;;;;;26401420;22;20193;-74
2022/05/24 05:02:57;;;;;;;0.20;0.10;;;21.30;99.90;;;;;;26401891;22;20173;-73
2022/05/24 05:13:05;;;;;;;0.20;0.00;;;21.40;99.90;;;;;;26400577;22;20186;-74
2022/05/24 05:23:11;;;;;;;0.20;0.00;;;21.40;99.90;;;;;;26429123;22;20179;-72
2022/05/24 05:33:16;;;;;;;0.20;0.00;;;21.60;99.90;;;;;;26425066;22;20208;-73
2022/05/24 05:43:21;;;;;;;0.20;0.00;;;21.60;99.90;;;;;;26372685;22;20181;-74
2022/05/24 05:53:27;;;;;;;0.20;0.00;;;21.60;99.90;;;;;;26396175;22;20249;-74
2022/05/24 06:03:31;;;;;;;0.20;0.00;;;21.90;99.90;;;;;;26418263;22;20147;-74
2022/05/24 06:13:36;;;;;;;0.20;0.00;;;21.80;99.90;;;;;;26393611;22;20193;-73
2022/05/24 06:23:40;;;;;;;0.20;0.00;;;21.90;99.90;;;;;;26424545;22;20154;-72
2022/05/24 06:33:45;;;;;;;0.20;0.00;;;21.60;99.90;;;;;;26424908;22;20204;-73
2022/05/24 06:43:49;;;;;;;0.20;0.00;;;21.60;99.90;;;;;;26423442;22;20584;-73
2022/05/24 06:53:55;;;;;;;0.20;0.10;;;21.60;99.90;;;;;;26424552;22;20213;-72
2022/05/24 07:03:58;;;;;;;0.20;0.00;;;21.30;99.90;;;;;;26391852;22;20184;-73
2022/05/24 07:14:04;;;;;;;0.20;0.00;;;21.40;99.90;;;;;;26418367;22;20195;-71
2022/05/24 07:24:08;;;;;;;0.20;0.10;;;21.50;99.90;;;;;;26428141;22;20151;-72
2022/05/24 07:34:13;;;;;;;0.20;0.00;;;21.70;99.90;;;;;;26430219;22;20190;-72
2022/05/24 07:55:00;;;;;;;0.20;0.00;;;20.80;99.90;;;;;;26427164;22;20208;-79
2022/05/24 08:05:04;;;;;;;0.40;0.40;;;20.80;99.90;;;;;;26401498;22;20329;-73
2022/05/24 08:15:11;;;;;;;0.20;0.00;;;21.10;99.90;;;;;;26424819;22;20181;-75
2022/05/24 08:25:15;;;;;;;0.20;0.00;;;21.60;99.90;;;;;;26426800;22;20155;-75
2022/05/24 08:35:21;;;;;;;0.20;0.00;;;21.40;99.90;;;;;;26427104;22;20262;-73
2022/05/24 08:55:51;;;;;;;0.20;0.10;;;20.60;99.90;;;;;;26412913;22;20197;-74
2022/05/24 09:06:01;;;;;;;0.20;0.10;;;20.60;99.90;;;;;;26414358;22;20551;-74
2022/05/24 09:16:11;;;;;;;0.20;0.00;;;20.50;99.90;;;;;;26413241;22;20190;-74
2022/05/24 09:26:20;;;;;;;0.20;0.10;;;20.90;99.90;;;;;;26383688;22;20158;-74
2022/05/24 09:36:38;;;;;;;0.20;0.10;;;20.80;99.90;;;;;;26389154;22;20201;-73
2022/05/24 11:10:45;;;;;;;0.20;0.00;;;20.70;99.90;;;;;;26420281;22;20194;-71
2022/05/24 11:20:55;;;;;;;0.20;0.07;;;21.80;99.90;;;;;;26426145;22;20158;-73
2022/05/24 11:31:27;;;;;;;0.20;0.00;;;20.90;99.90;;;;;;26429047;22;20181;-75
2022/05/24 11:41:32;;;;;;;0.20;0.00;;;21.80;99.90;;;;;;26397344;22;20159;-73
2022/05/24 11:51:41;;;;;;;0.20;0.00;;;21.70;99.90;;;;;;26425214;22;20190;-75
2022/05/24 12:01:48;;;;;;;0.20;0.00;;;21.60;99.90;;;;;;26424352;22;20177;-75
2022/05/24 12:12:17;;;;;;;0.20;0.10;;;21.40;99.90;;;;;;26395600;22;20205;-73
2022/05/24 12:22:26;;;;;;;0.20;0.00;;;21.80;99.90;;;;;;26426944;22;20170;-74
2022/05/24 12:32:36;;;;;;;0.20;0.00;;;21.80;99.90;;;;;;26418704;22;20246;-73
2022/05/24 12:42:48;;;;;;;0.20;0.00;;;22.00;99.90;;;;;;26360996;22;20196;-72
2022/05/24 12:53:00;;;;;;;0.20;0.00;;;21.70;99.90;;;;;;26416445;22;20190;-71
2022/05/24 13:03:07;;;;;;;0.20;0.00;;;21.80;99.90;;;;;;26414299;22;20154;-74
2022/05/24 13:13:15;;;;;;;0.20;0.00;;;22.90;99.90;;;;;;26413840;22;20208;-71
2022/05/24 13:23:23;;;;;;;0.20;0.00;;;21.80;99.90;;;;;;26407360;22;20185;-73
2022/05/24 13:33:37;;;;;;;0.20;0.00;;;21.10;99.90;;;;;;26412538;22;20224;-75
2022/05/24 13:43:44;;;;;;;0.20;0.10;;;21.20;99.90;;;;;;26413176;22;20173;-74
2022/05/24 13:53:49;;;;;;;0.20;0.10;;;21.60;99.90;;;;;;26408976;22;20197;-74
2022/05/24 14:03:56;;;;;;;0.20;0.00;;;21.20;99.90;;;;;;26383306;22;20168;-76
2022/05/24 14:14:01;;;;;;;0.20;0.10;;;21.20;99.90;;;;;;26409631;22;20283;-74
2022/05/24 14:24:12;;;;;;;0.20;0.03;;;21.60;99.90;;;;;;26411715;22;20184;-73
2022/05/24 14:34:21;;;;;;;0.20;0.10;;;21.10;99.90;;;;;;26388000;22;20198;-74
2022/05/24 14:44:27;;;;;;;0.20;0.00;;;20.10;99.90;;;;;;26418645;22;20174;-74
2022/05/24 14:54:35;;;;;;;0.20;0.00;;;19.70;99.90;;;;;;26417334;22;20197;-74
2022/05/24 15:04:46;;;;;;;0.20;0.10;;;19.90;99.90;;;;;;26359991;22;20186;-69
2022/05/24 15:25:17;;;;;;;0.20;0.00;;;21.90;99.90;;;;;;26389770;22;20162;-77
2022/05/24 15:35:23;;;;;;;16.33;2.30;;;21.10;99.90;;;;;;26387879;22;20182;-74
2022/05/24 15:45:27;;;;;;;0.20;0.00;;;21.10;99.90;;;;;;26413540;22;20233;-74
2022/05/24 15:55:33;;;;;;;0.20;0.10;;;21.20;99.90;;;;;;26419028;22;20219;-74
2022/05/24 16:15:58;;;;;;;0.20;0.00;;;20.30;99.90;;;;;;26337997;22;20186;-75
2022/05/24 16:26:02;;;;;;;0.20;0.10;;;20.50;99.90;;;;;;26425700;22;20204;-70
2022/05/24 16:36:08;;;;;;;0.20;0.00;;;21.40;99.90;;;;;;26424169;22;20194;-74
2022/05/24 16:46:12;;;;;;;0.20;0.00;;;21.10;99.90;;;;;;26399355;22;20208;-70
2022/05/24 17:06:39;;;;;;;0.20;0.10;;;20.90;99.90;;;;;;26421775;22;20193;-72
2022/05/24 17:16:49;;;;;;;0.20;0.00;;;20.80;99.90;;;;;;26423887;22;20190;-71
2022/05/24 17:26:53;;;;;;;0.20;0.10;;;20.50;99.90;;;;;;26367749;22;20167;-71
2022/05/24 17:36:58;;;;;;;0.20;0.00;;;20.20;99.90;;;;;;26422419;22;20193;-67
2022/05/24 17:47:02;;;;;;;0.20;0.10;;;19.80;99.90;;;;;;26427361;22;20162;-66
2022/05/24 17:57:09;;;;;;;0.20;0.10;;;19.60;99.90;;;;;;26422402;22;20262;-71
2022/05/24 18:07:16;;;;;;;0.20;0.10;;;18.90;99.90;;;;;;26426748;22;20186;-71
2022/05/24 18:17:24;;;;;;;0.20;0.10;;;17.70;99.90;;;;;;26397458;22;20178;-72
2022/05/24 18:37:54;;;;;;;0.20;0.10;;;17.00;99.90;;;;;;26420318;22;20192;-72
2022/05/24 18:48:18;;;;;;;0.20;0.10;;;16.90;99.90;;;;;;26366289;22;20158;-71
2022/05/24 18:58:23;;;;;;;0.20;0.00;;;16.80;99.90;;;;;;26392393;22;20178;-73
2022/05/24 19:08:29;;;;;;;0.20;0.00;;;16.50;99.90;;;;;;26394436;22;20206;-72
2022/05/24 19:18:34;;;;;;;0.20;0.00;;;16.70;99.90;;;;;;26428092;22;20292;-72
2022/05/24 19:28:38;;;;;;;0.20;0.10;;;16.30;99.90;;;;;;26430046;22;20186;-72
2022/05/24 19:49:05;;;;;;;0.20;0.10;;;16.00;99.90;;;;;;26428028;22;20275;-72
2022/05/24 19:59:11;;;;;;;0.20;0.00;;;16.00;99.90;;;;;;26399533;22;20189;-73
2022/05/24 20:09:15;;;;;;;0.20;0.10;;;16.00;99.90;;;;;;26426414;22;20194;-72
2022/05/24 20:19:20;;;;;;;0.20;0.00;;;16.00;99.90;;;;;;26427755;22;20166;-73
2022/05/24 20:29:24;;;;;;;0.20;0.10;;;16.20;99.90;;;;;;26399073;22;20178;-74
2022/05/24 20:39:29;;;;;;;0.20;0.00;;;16.20;99.90;;;;;;26397639;22;20162;-70
2022/05/24 20:49:34;;;;;;;0.20;0.00;;;16.30;99.90;;;;;;26422871;22;20569;-74
2022/05/24 20:59:39;;;;;;;0.20;0.10;;;16.20;99.90;;;;;;26411815;22;20197;-73
2022/05/24 21:09:45;;;;;;;0.20;0.00;;;16.20;99.90;;;;;;26367696;22;20456;-75
2022/05/24 21:19:49;;;;;;;0.20;0.00;;;16.00;99.90;;;;;;26420352;22;20178;-74
2022/05/24 21:29:56;;;;;;;0.20;0.10;;;16.20;99.90;;;;;;26395382;22;20194;-74
2022/05/24 21:40:01;;;;;;;0.20;0.00;;;16.00;99.90;;;;;;26392855;22;20191;-75
2022/05/24 21:50:08;;;;;;;0.20;0.00;;;16.40;99.90;;;;;;26421074;22;20190;-75
2022/05/24 22:00:38;;;;;;;0.20;0.00;;;16.40;99.90;;;;;;26392438;22;20198;-72
2022/05/24 22:10:44;;;;;;;0.20;0.00;;;16.10;99.90;;;;;;26394497;22;20444;-75
2022/05/24 22:20:49;;;;;;;0.20;0.10;;;16.10;99.90;;;;;;26419486;22;20154;-74
2022/05/24 22:30:56;;;;;;;0.20;0.00;;;16.20;99.90;;;;;;26418633;22;20211;-75
2022/05/24 22:41:05;;;;;;;0.20;0.00;;;15.90;99.90;;;;;;26392483;22;20464;-75
2022/05/24 22:51:12;;;;;;;0.20;0.00;;;16.00;99.90;;;;;;26425851;22;20185;-75
2022/05/24 23:01:18;;;;;;;0.20;0.10;;;16.00;99.90;;;;;;26399730;22;20255;-74
2022/05/24 23:11:24;;;;;;;0.20;0.00;;;16.00;99.90;;;;;;26400078;22;20241;-73
2022/05/24 23:21:27;;;;;;;0.20;0.00;;;15.80;99.90;;;;;;26426488;22;20174;-73
2022/05/24 23:31:33;;;;;;;0.20;0.00;;;15.70;99.90;;;;;;26427276;22;20183;-74
2022/05/24 23:41:38;;;;;;;0.20;0.10;;;15.40;99.90;;;;;;26398920;22;20348;-74
2022/05/24 23:51:43;;;;;;;0.20;0.10;;;15.40;99.90;;;;;;26400001;22;20468;-74
